createdAt,value
2023-04-08T00:12:46.384Z,101.23
2023-04-08T00:27:51.979Z,99.95
2023-04-08T00:42:59.499Z,101.83
2023-04-08T00:58:05.285Z,101.75
2023-04-08T01:13:20.417Z,100.91
2023-04-08T01:28:30.048Z,100.83
2023-04-08T01:43:36.361Z,102.09
2023-04-08T01:58:44.331Z,102.01
2023-04-08T02:13:50.643Z,102.05
2023-04-08T02:28:57.838Z,103.51
2023-04-08T02:44:03.345Z,102.89
2023-04-08T02:59:09.499Z,103.18
2023-04-08T03:14:15.055Z,103.41
2023-04-08T03:29:20.599Z,104.31
2023-04-08T03:44:26.126Z,104.40
2023-04-08T03:59:32.581Z,103.63
2023-04-08T04:14:38.016Z,104.24
2023-04-08T04:29:43.507Z,103.54
2023-04-08T04:44:49.531Z,103.95
2023-04-08T04:59:55.187Z,104.57
2023-04-08T05:15:02.428Z,104.33
2023-04-08T05:30:10.166Z,104.54
2023-04-08T05:45:16.381Z,104.89
2023-04-08T06:00:22.545Z,104.42
2023-04-08T06:15:28.329Z,104.02
2023-04-08T06:30:33.883Z,104.02
2023-04-08T06:45:39.470Z,100.12
2023-04-08T07:00:45.737Z,93.64
2023-04-08T07:15:51.171Z,89.39
2023-04-08T07:30:57.578Z,88.64
2023-04-08T07:46:06.721Z,89.40
2023-04-08T08:01:20.321Z,89.60
2023-04-08T08:16:30.755Z,86.09
2023-04-08T08:31:36.535Z,83.20
2023-04-08T08:46:46.928Z,84.70
2023-04-08T09:01:52.591Z,82.44
2023-04-08T09:16:58.294Z,80.86
2023-04-08T09:32:04.116Z,84.02
2023-04-08T09:47:14.236Z,83.62
2023-04-08T10:02:26.485Z,83.81
2023-04-08T10:17:37.107Z,82.69
2023-04-08T10:32:44.552Z,83.19
2023-04-08T10:47:50.141Z,82.70
2023-04-08T11:02:55.845Z,81.33
2023-04-08T11:18:02.849Z,80.72
2023-04-08T11:33:08.663Z,80.02
2023-04-08T11:48:15.369Z,78.74
2023-04-08T12:03:21.031Z,75.76
2023-04-08T12:18:26.647Z,74.79
2023-04-08T12:33:32.084Z,74.54
2023-04-08T12:48:38.001Z,76.34
2023-04-08T13:03:45.682Z,72.44
2023-04-08T13:18:53.000Z,72.70
2023-04-08T13:33:58.674Z,74.22
2023-04-08T13:49:04.521Z,75.41
2023-04-08T14:04:10.158Z,76.89
2023-04-08T14:19:18.781Z,77.57
2023-04-08T14:34:24.830Z,77.11
2023-04-08T14:49:30.384Z,78.85
2023-04-08T15:04:35.963Z,76.22
2023-04-08T15:19:41.640Z,76.38
2023-04-08T15:34:47.696Z,75.00
2023-04-08T15:49:56.277Z,78.18
2023-04-08T16:05:01.869Z,79.03
2023-04-08T16:20:08.762Z,78.94
2023-04-08T16:35:14.658Z,79.33
2023-04-08T16:50:20.384Z,80.00
2023-04-08T17:05:26.378Z,80.59
2023-04-08T17:20:32.295Z,82.00
2023-04-08T17:35:37.908Z,82.43
2023-04-08T17:50:43.567Z,81.68
2023-04-08T18:05:49.258Z,80.85
2023-04-08T18:20:54.779Z,81.09
2023-04-08T18:36:09.359Z,81.64
2023-04-08T18:51:15.132Z,83.63
2023-04-08T19:06:22.868Z,86.83
2023-04-08T19:21:30.974Z,86.70
2023-04-08T19:36:36.688Z,89.89
2023-04-08T19:51:42.325Z,88.80
2023-04-08T20:06:48.751Z,89.46
2023-04-08T20:21:54.765Z,88.80
2023-04-08T20:37:00.243Z,91.14
2023-04-08T20:52:06.140Z,90.05
2023-04-08T21:07:11.929Z,91.98
2023-04-08T21:22:17.903Z,91.75
2023-04-08T21:37:24.145Z,92.78
2023-04-08T21:52:31.831Z,92.20
2023-04-08T22:07:38.293Z,92.63
2023-04-08T22:22:44.001Z,92.42
2023-04-08T22:37:49.443Z,91.76
2023-04-08T22:52:55.120Z,91.92
2023-04-08T23:08:00.960Z,90.11
2023-04-08T23:23:06.690Z,88.68
2023-04-08T23:38:12.316Z,88.58
2023-04-08T23:53:17.802Z,88.53
